createdAt,value
2017-10-24T00:00:23.942Z,101676.98
2017-10-24T00:05:25.892Z,101679.10
2017-10-24T00:10:27.816Z,101688.22
2017-10-24T00:15:30.623Z,101681.46
2017-10-24T00:20:32.598Z,101687.99
2017-10-24T00:25:34.556Z,101684.72
2017-10-24T00:30:36.505Z,101686.09
2017-10-24T00:35:38.424Z,101690.13
2017-10-24T00:40:41.413Z,101695.30
2017-10-24T00:45:43.383Z,101691.30
2017-10-24T00:50:46.102Z,101703.76
2017-10-24T00:55:48.124Z,101701.67
2017-10-24T01:00:50.863Z,101693.25
2017-10-24T01:05:53.461Z,101691.19
2017-10-24T01:10:57.051Z,101695.05
2017-10-24T01:15:59.078Z,101700.01
2017-10-24T01:21:01.107Z,101703.25
2017-10-24T01:26:03.930Z,101696.64
2017-10-24T01:31:05.964Z,101698.40
2017-10-24T01:36:08.002Z,101688.55
2017-10-24T01:41:10.075Z,101695.47
2017-10-24T01:46:12.082Z,101697.52
2017-10-24T01:51:14.117Z,101694.80
2017-10-24T01:56:16.143Z,101695.45
2017-10-24T02:01:18.183Z,101691.32
2017-10-24T02:06:20.143Z,101698.63
2017-10-24T02:11:22.154Z,101694.05
2017-10-24T02:16:24.172Z,101698.29
2017-10-24T02:21:26.220Z,101693.28
2017-10-24T02:26:28.226Z,101703.81
2017-10-24T02:31:30.200Z,101698.40
2017-10-24T02:36:32.152Z,101697.53
2017-10-24T02:41:34.179Z,101697.38
2017-10-24T02:46:36.154Z,101690.56
2017-10-24T02:51:38.230Z,101680.78
2017-10-24T02:56:40.902Z,101682.00
2017-10-24T03:01:42.851Z,101683.50
2017-10-24T03:06:44.765Z,101693.59
2017-10-24T03:11:47.602Z,101698.75
2017-10-24T03:16:49.525Z,101696.89
2017-10-24T03:21:51.503Z,101703.80
2017-10-24T03:26:53.504Z,101694.34
2017-10-24T03:31:56.171Z,101692.69
2017-10-24T03:36:58.104Z,101692.55
2017-10-24T03:42:00.037Z,101694.19
2017-10-24T03:47:02.679Z,101694.52
2017-10-24T03:52:04.683Z,101698.97
2017-10-24T03:57:06.698Z,101704.05
2017-10-24T04:02:08.635Z,101702.95
2017-10-24T04:07:10.620Z,101699.25
2017-10-24T04:12:12.591Z,101684.19
2017-10-24T04:17:14.548Z,101661.38
2017-10-24T04:22:16.537Z,101658.15
2017-10-24T04:27:18.521Z,101658.05
2017-10-24T04:32:20.516Z,101660.00
2017-10-24T04:37:22.532Z,101654.05
2017-10-24T04:42:24.447Z,101653.48
2017-10-24T04:47:26.387Z,101665.64
2017-10-24T04:52:28.398Z,101662.53
2017-10-24T04:57:31.074Z,101655.94
2017-10-24T05:02:33.028Z,101654.52
2017-10-24T05:07:35.719Z,101674.97
2017-10-24T05:12:37.634Z,101675.66
2017-10-24T05:17:39.614Z,101656.81
2017-10-24T05:22:41.564Z,101661.39
2017-10-24T05:27:44.311Z,101654.37
2017-10-24T05:32:47.173Z,101653.33
2017-10-24T05:37:49.891Z,101653.44
2017-10-24T05:42:53.987Z,101668.13
2017-10-24T05:47:56.259Z,101661.44
2017-10-24T05:52:58.315Z,101677.23
2017-10-24T05:58:00.978Z,101690.23
2017-10-24T06:03:02.968Z,101681.44
2017-10-24T06:08:04.886Z,101683.78
2017-10-24T06:13:06.800Z,101687.36
2017-10-24T06:18:08.840Z,101681.48
2017-10-24T06:23:10.823Z,101681.05
2017-10-24T06:28:12.792Z,101685.63
2017-10-24T06:33:14.701Z,101676.31
2017-10-24T06:38:16.693Z,101678.44
2017-10-24T06:43:18.673Z,101675.39
2017-10-24T06:48:20.664Z,101673.84
2017-10-24T06:53:23.379Z,101662.22
2017-10-24T06:58:26.086Z,101668.49
2017-10-24T07:03:28.075Z,101679.47
2017-10-24T07:08:30.024Z,101671.94
2017-10-24T07:13:32.787Z,101677.35
2017-10-24T07:18:34.806Z,101687.27
2017-10-24T07:23:36.779Z,101677.66
2017-10-24T07:28:38.721Z,101687.67
2017-10-24T07:33:40.656Z,101687.48
2017-10-24T07:38:43.373Z,101674.80
2017-10-24T07:43:46.064Z,101676.30
2017-10-24T07:48:48.040Z,101665.49
2017-10-24T07:53:49.999Z,101663.40
2017-10-24T07:58:52.054Z,101670.94
2017-10-24T08:03:53.999Z,101675.84
2017-10-24T08:08:56.026Z,101671.39
2017-10-24T08:13:58.060Z,101666.55
2017-10-24T08:19:00.101Z,101679.06
2017-10-24T08:24:02.056Z,101676.00
2017-10-24T08:29:04.014Z,101665.21
2017-10-24T08:34:05.948Z,101672.55
2017-10-24T08:39:07.897Z,101667.71
2017-10-24T08:44:13.866Z,101673.88
2017-10-24T08:49:15.784Z,101680.86
2017-10-24T08:54:17.986Z,101674.08
2017-10-24T08:59:19.931Z,101674.31
2017-10-24T09:04:21.933Z,101675.67
2017-10-24T09:15:05.064Z,101659.91
2017-10-24T09:20:09.744Z,101657.73
2017-10-24T09:25:11.851Z,101642.34
2017-10-24T09:30:19.062Z,101649.77
2017-10-24T09:35:22.104Z,101656.42
2017-10-24T09:40:24.094Z,101667.66
2017-10-24T09:45:27.163Z,101667.96
2017-10-24T09:50:29.423Z,101663.59
2017-10-24T09:55:31.364Z,101655.22
2017-10-24T10:00:33.399Z,101645.64
2017-10-24T10:05:35.540Z,101637.63
2017-10-24T10:10:37.527Z,101626.77
2017-10-24T10:15:39.581Z,101628.19
2017-10-24T10:20:41.607Z,101615.24
2017-10-24T10:25:43.598Z,101630.22
2017-10-24T10:30:45.877Z,101637.37
2017-10-24T10:35:47.751Z,101646.72
2017-10-24T10:40:50.429Z,101641.71
2017-10-24T10:45:52.456Z,101643.84
2017-10-24T10:50:54.411Z,101640.52
2017-10-24T10:55:56.342Z,101640.40
2017-10-24T11:00:58.322Z,101639.15
2017-10-24T11:06:00.577Z,101636.36
2017-10-24T11:11:02.506Z,101644.33
2017-10-24T11:16:08.770Z,101641.20
2017-10-24T11:21:11.031Z,101635.83
2017-10-24T11:26:13.747Z,101620.66
2017-10-24T11:31:15.679Z,101606.45
2017-10-24T11:36:17.648Z,101596.08
2017-10-24T11:41:20.318Z,101585.84
2017-10-24T11:46:22.315Z,101587.69
2017-10-24T11:51:24.270Z,101597.51
2017-10-24T11:56:26.677Z,101595.67
2017-10-24T12:01:28.796Z,101600.94
2017-10-24T12:06:30.860Z,101592.69
2017-10-24T12:11:32.801Z,101572.31
2017-10-24T12:16:35.181Z,101582.92
2017-10-24T12:21:37.108Z,101592.12
2017-10-24T12:26:39.046Z,101586.13
2017-10-24T12:31:40.979Z,101580.25
2017-10-24T12:36:42.927Z,101579.40
2017-10-24T12:41:45.014Z,101564.48
2017-10-24T12:46:57.840Z,101555.02
2017-10-24T12:51:59.992Z,101552.10
2017-10-24T12:57:02.009Z,101562.50
2017-10-24T13:02:04.050Z,101555.28
2017-10-24T13:07:06.516Z,101552.28
2017-10-24T13:12:08.480Z,101548.08
2017-10-24T13:17:10.422Z,101535.92
2017-10-24T13:22:12.409Z,101540.45
2017-10-24T13:27:14.340Z,101535.20
2017-10-24T13:32:16.313Z,101542.66
2017-10-24T13:37:18.247Z,101548.16
2017-10-24T13:42:20.163Z,101548.22
2017-10-24T13:47:22.927Z,101533.56
2017-10-24T13:52:24.887Z,101529.22
2017-10-24T13:57:27.089Z,101528.16
2017-10-24T14:02:29.071Z,101515.28
2017-10-24T14:07:36.941Z,101515.69
2017-10-24T14:12:38.898Z,101523.05
2017-10-24T14:17:40.882Z,101528.18
2017-10-24T14:22:42.947Z,101531.70
2017-10-24T14:27:44.958Z,101529.08
2017-10-24T14:32:46.889Z,101542.76
2017-10-24T14:37:48.838Z,101543.00
2017-10-24T14:42:50.788Z,101535.06
2017-10-24T14:47:52.691Z,101547.34
2017-10-24T14:52:55.364Z,101545.12
2017-10-24T14:57:57.287Z,101534.66
2017-10-24T15:02:59.192Z,101532.58
2017-10-24T15:08:01.140Z,101536.84
2017-10-24T15:13:03.112Z,101519.68
2017-10-24T15:18:05.063Z,101518.89
2017-10-24T15:23:07.104Z,101516.10
2017-10-24T15:28:09.060Z,101519.56
2017-10-24T15:33:11.056Z,101517.38
2017-10-24T15:38:13.707Z,101518.37
2017-10-24T15:43:16.233Z,101515.23
2017-10-24T15:48:18.207Z,101513.92
2017-10-24T15:53:20.940Z,101518.73
2017-10-24T15:58:22.908Z,101518.30
2017-10-24T16:03:24.882Z,101526.13
2017-10-24T16:08:26.892Z,101517.00
2017-10-24T16:13:28.845Z,101520.97
2017-10-24T16:18:30.777Z,101513.69
2017-10-24T16:23:32.692Z,101529.50
2017-10-24T16:28:34.634Z,101488.84
2017-10-24T16:33:36.735Z,101493.56
2017-10-24T16:38:38.710Z,101483.14
2017-10-24T16:43:40.661Z,101473.80
2017-10-24T16:48:43.316Z,101474.98
2017-10-24T16:53:45.255Z,101464.88
2017-10-24T16:58:47.195Z,101446.73
2017-10-24T17:03:49.115Z,101458.13
2017-10-24T17:08:55.545Z,101454.08
2017-10-24T17:14:03.827Z,101443.50
2017-10-24T17:19:07.494Z,101444.03
2017-10-24T17:24:09.563Z,101442.77
2017-10-24T17:29:11.451Z,101441.74
2017-10-24T17:34:13.411Z,101449.59
2017-10-24T17:39:16.221Z,101451.78
2017-10-24T17:44:22.416Z,101457.02
2017-10-24T17:49:24.356Z,101457.45
2017-10-24T17:54:27.086Z,101457.04
2017-10-24T17:59:30.025Z,101454.65
2017-10-24T18:04:31.975Z,101447.85
2017-10-24T18:09:33.921Z,101442.41
2017-10-24T18:14:35.933Z,101433.72
2017-10-24T18:19:38.068Z,101433.80
2017-10-24T18:24:40.412Z,101437.20
2017-10-24T18:29:42.365Z,101432.89
2017-10-24T18:34:44.313Z,101421.97
2017-10-24T18:39:46.420Z,101413.14
2017-10-24T18:44:48.318Z,101408.47
2017-10-24T18:49:50.312Z,101419.75
2017-10-24T18:54:52.285Z,101415.44
2017-10-24T18:59:54.314Z,101396.67
2017-10-24T19:04:56.351Z,101381.66
2017-10-24T19:09:58.456Z,101394.19
2017-10-24T19:15:00.899Z,101398.31
2017-10-24T19:20:03.626Z,101403.44
2017-10-24T19:25:05.550Z,101409.06
2017-10-24T19:30:07.475Z,101409.97
2017-10-24T19:35:09.434Z,101396.72
2017-10-24T19:40:11.356Z,101397.64
2017-10-24T19:45:13.367Z,101409.25
2017-10-24T19:50:15.319Z,101402.38
2017-10-24T19:55:17.231Z,101392.92
2017-10-24T20:00:19.170Z,101404.85
2017-10-24T20:05:21.075Z,101425.05
2017-10-24T20:10:23.009Z,101435.12
2017-10-24T20:15:24.970Z,101432.70
2017-10-24T20:20:26.975Z,101433.24
2017-10-24T20:25:28.942Z,101434.16
2017-10-24T20:30:30.895Z,101435.48
2017-10-24T20:35:32.818Z,101443.08
2017-10-24T20:40:34.772Z,101446.78
2017-10-24T20:45:37.476Z,101440.07
2017-10-24T20:50:39.433Z,101449.28
2017-10-24T20:55:41.408Z,101447.05
2017-10-24T21:00:43.339Z,101447.42
2017-10-24T21:05:45.253Z,101446.72
2017-10-24T21:10:47.192Z,101451.83
2017-10-24T21:15:49.108Z,101442.72
2017-10-24T21:20:51.176Z,101444.91
2017-10-24T21:25:53.127Z,101442.30
2017-10-24T21:30:55.790Z,101430.88
2017-10-24T21:35:57.704Z,101417.17
2017-10-24T21:40:59.707Z,101422.98
2017-10-24T21:46:01.641Z,101423.75
2017-10-24T21:51:03.604Z,101422.70
2017-10-24T21:56:05.706Z,101409.63
2017-10-24T22:01:07.731Z,101406.46
2017-10-24T22:06:09.677Z,101404.56
2017-10-24T22:11:12.339Z,101408.09
2017-10-24T22:16:14.277Z,101402.80
2017-10-24T22:21:16.199Z,101399.89
2017-10-24T22:26:18.149Z,101398.10
2017-10-24T22:31:20.047Z,101399.61
2017-10-24T22:36:21.973Z,101402.17
2017-10-24T22:41:23.904Z,101400.53
2017-10-24T22:46:25.867Z,101401.40
2017-10-24T22:51:27.852Z,101392.34
2017-10-24T22:56:29.792Z,101391.12
2017-10-24T23:01:31.708Z,101395.91
2017-10-24T23:06:33.650Z,101394.86
2017-10-24T23:11:36.336Z,101394.97
2017-10-24T23:16:38.277Z,101408.38
2017-10-24T23:21:40.939Z,101406.87
2017-10-24T23:26:42.883Z,101400.53
2017-10-24T23:31:45.573Z,101417.77
2017-10-24T23:36:47.503Z,101414.45
2017-10-24T23:41:49.404Z,101414.49
2017-10-24T23:46:51.349Z,101398.55
2017-10-24T23:51:53.328Z,101401.02
2017-10-24T23:56:55.983Z,101397.10
